Time;durP1;ratioP1;P1;durP2;ratioP2;P2;SDS_P1;SDS_P2;PMS_P1;PMS_P2;Temp;Humidity;BMP_temperature;BMP_pressure;BME280_temperature;BME280_humidity;BME280_pressure;Samples;Min_cycle;Max_cycle;Signal;HPM_P1;HPM_P2
2024/01/03 00:01:33;;;;;;;0.77;0.20;;;;;;;11.39;100.00;95343.34;5038554;28;20458;-77
2024/01/03 00:04:00;;;;;;;0.10;0.10;;;;;;;11.13;100.00;95336.16;5038791;28;20057;-77
2024/01/03 00:06:32;;;;;;;0.20;0.10;;;;;;;11.31;100.00;95336.31;5036442;28;20057;-76
2024/01/03 00:09:00;;;;;;;1.67;0.03;;;;;;;11.37;100.00;95345.66;5029707;28;20525;-77
2024/01/03 00:11:30;;;;;;;0.10;0.10;;;;;;;11.39;100.00;95346.81;5029722;28;20045;-77
2024/01/03 00:14:04;;;;;;;0.20;0.10;;;;;;;11.31;100.00;95339.00;5032844;28;21426;-76
2024/01/03 00:16:35;;;;;;;0.10;0.10;;;;;;;11.28;100.00;95359.50;5036145;28;20266;-76
2024/01/03 00:19:03;;;;;;;0.22;0.20;;;;;;;11.37;100.00;95353.78;5036015;28;20048;-77
2024/01/03 00:21:33;;;;;;;0.22;0.00;;;;;;;11.22;100.00;95367.22;5013452;28;20053;-76
2024/01/03 00:24:07;;;;;;;0.00;0.00;;;;;;;11.20;100.00;95366.78;5031873;28;20049;-77
2024/01/03 00:26:35;;;;;;;0.35;0.10;;;;;;;11.31;100.00;95366.09;5035394;28;20136;-77
2024/01/03 00:29:15;;;;;;;0.40;0.20;;;;;;;11.19;100.00;95364.47;5045264;28;20100;-76
2024/01/03 00:31:44;;;;;;;0.28;0.20;;;;;;;11.23;100.00;95360.63;5043688;28;20045;-77
2024/01/03 00:34:20;;;;;;;0.32;0.10;;;;;;;11.51;100.00;95341.09;5042440;28;20419;-76
2024/01/03 00:36:48;;;;;;;0.10;0.10;;;;;;;11.68;100.00;95347.81;5027924;28;20423;-77
2024/01/03 00:39:24;;;;;;;0.20;0.10;;;;;;;11.76;100.00;95346.75;5032090;28;20466;-76
2024/01/03 00:41:51;;;;;;;;;;;;;;;11.52;100.00;95350.81;5044513;28;20132;-77
2024/01/03 00:44:17;;;;;;;0.40;0.20;;;;;;;11.53;100.00;95357.00;5043791;28;19921;-77
2024/01/03 00:46:44;;;;;;;0.30;0.10;;;;;;;11.50;100.00;95341.50;5034724;28;20041;-76
2024/01/03 00:49:12;;;;;;;0.28;0.28;;;;;;;11.54;100.00;95355.84;5038126;28;20047;-76
2024/01/03 00:51:48;;;;;;;1.75;0.20;;;;;;;11.40;100.00;95358.44;5037810;28;20053;-77
2024/01/03 00:54:17;;;;;;;0.28;0.10;;;;;;;11.51;100.00;95360.06;5044486;28;20045;-77
2024/01/03 00:56:46;;;;;;;0.65;0.20;;;;;;;11.41;100.00;95360.78;5062250;28;20415;-77
2024/01/03 00:59:14;;;;;;;0.35;0.20;;;;;;;11.23;100.00;95357.91;5042896;28;20064;-76
2024/01/03 01:01:41;;;;;;;0.32;0.20;;;;;;;11.32;100.00;95354.13;5036043;28;20533;-77
2024/01/03 01:04:08;;;;;;;0.25;0.20;;;;;;;11.28;100.00;95357.56;5025587;28;20045;-76
2024/01/03 01:06:36;;;;;;;0.10;0.10;;;;;;;11.48;100.00;95373.59;5032840;28;20133;-77
2024/01/03 01:09:04;;;;;;;0.55;0.20;;;;;;;11.40;100.00;95375.47;5048271;28;20077;-76
2024/01/03 01:11:31;;;;;;;0.10;0.10;;;;;;;11.43;100.00;95382.09;5047122;28;20051;-76
2024/01/03 01:13:58;;;;;;;0.10;0.10;;;;;;;11.53;100.00;95374.03;5033994;28;20045;-76
2024/01/03 01:16:25;;;;;;;2.20;0.13;;;;;;;11.50;100.00;95393.75;5037556;28;20065;-77
2024/01/03 01:18:52;;;;;;;0.55;0.20;;;;;;;11.45;100.00;95387.91;5062340;28;20056;-76
2024/01/03 01:21:19;;;;;;;0.10;0.10;;;;;;;11.75;100.00;95372.28;5029701;28;20041;-76
2024/01/03 01:23:47;;;;;;;0.50;0.20;;;;;;;11.58;100.00;95391.88;5018976;28;20158;-77
2024/01/03 01:26:14;;;;;;;0.40;0.17;;;;;;;11.51;100.00;95381.75;5033108;28;20061;-75
2024/01/03 01:28:42;;;;;;;1.10;0.13;;;;;;;11.56;100.00;95394.94;5021923;28;20132;-77
2024/01/03 01:31:09;;;;;;;0.22;0.10;;;;;;;11.59;100.00;95407.75;5018691;28;20050;-77
2024/01/03 01:33:36;;;;;;;0.10;0.10;;;;;;;11.59;100.00;95396.13;5024367;28;20044;-77
2024/01/03 01:36:03;;;;;;;0.35;0.20;;;;;;;11.44;100.00;95386.31;5034211;28;20056;-76
2024/01/03 01:38:31;;;;;;;1.17;0.20;;;;;;;11.55;100.00;95406.94;5017135;28;20576;-76
2024/01/03 01:40:58;;;;;;;0.20;0.20;;;;;;;11.54;100.00;95410.81;5023941;28;20046;-75
2024/01/03 01:43:25;;;;;;;0.30;0.20;;;;;;;11.61;100.00;95415.50;5018867;28;20103;-77
2024/01/03 01:45:52;;;;;;;0.68;0.20;;;;;;;11.45;100.00;95417.69;5022715;28;20046;-77
2024/01/03 01:48:20;;;;;;;0.98;0.28;;;;;;;11.63;100.00;95414.00;5002503;28;20045;-76
2024/01/03 01:50:47;;;;;;;0.20;0.10;;;;;;;11.62;100.00;95431.38;5024150;28;20045;-75
2024/01/03 01:53:14;;;;;;;3.45;0.30;;;;;;;11.57;100.00;95430.94;5019452;28;20550;-75
2024/01/03 01:55:42;;;;;;;2.38;0.20;;;;;;;11.66;100.00;95428.72;5020869;28;20511;-77
2024/01/03 01:58:13;;;;;;;3.22;0.20;;;;;;;11.64;100.00;95425.59;5020697;28;20049;-76
2024/01/03 02:00:42;;;;;;;0.93;0.28;;;;;;;11.59;100.00;95423.22;5024674;28;20046;-76
2024/01/03 02:03:10;;;;;;;0.32;0.17;;;;;;;11.66;100.00;95437.63;5026131;28;20041;-77
2024/01/03 02:05:37;;;;;;;1.05;0.17;;;;;;;11.66;100.00;95428.72;5027347;28;20123;-77
2024/01/03 02:08:08;;;;;;;0.10;0.10;;;;;;;11.55;100.00;95434.03;5004072;28;20622;-77
2024/01/03 02:10:36;;;;;;;0.93;0.30;;;;;;;11.49;100.00;95435.53;5018425;28;20038;-76
2024/01/03 02:13:03;;;;;;;1.33;0.22;;;;;;;11.54;100.00;95446.03;5000948;28;20049;-77
2024/01/03 02:15:30;;;;;;;0.40;0.20;;;;;;;11.47;100.00;95435.13;5024963;28;20100;-77
2024/01/03 02:17:58;;;;;;;3.10;0.10;;;;;;;11.54;100.00;95458.78;5025308;28;20135;-76
2024/01/03 02:20:30;;;;;;;0.55;0.20;;;;;;;11.55;100.00;95444.09;5032855;28;20042;-76
2024/01/03 02:22:57;;;;;;;0.13;0.10;;;;;;;11.53;100.00;95457.25;5026271;28;20054;-76
2024/01/03 02:25:24;;;;;;;0.35;0.10;;;;;;;11.51;100.00;95446.00;5026412;28;20045;-76
2024/01/03 02:27:51;;;;;;;2.40;0.40;;;;;;;11.48;100.00;95452.97;5026712;28;20076;-76
2024/01/03 02:30:18;;;;;;;1.23;0.40;;;;;;;11.38;100.00;95459.03;5024321;28;20133;-77
2024/01/03 02:32:45;;;;;;;0.20;0.10;;;;;;;11.44;100.00;95452.13;5027780;28;20061;-76
2024/01/03 02:35:12;;;;;;;0.28;0.20;;;;;;;11.51;100.00;95446.00;5023914;28;20095;-77
2024/01/03 02:37:39;;;;;;;0.32;0.20;;;;;;;11.38;100.00;95444.72;5026266;28;20483;-76
2024/01/03 02:40:06;;;;;;;0.75;0.22;;;;;;;11.52;100.00;95455.69;5028277;28;20044;-76
2024/01/03 02:42:33;;;;;;;1.20;0.30;;;;;;;11.46;100.00;95438.22;5024360;28;20045;-76
2024/01/03 02:45:00;;;;;;;0.77;0.20;;;;;;;11.51;100.00;95435.94;5019705;28;20037;-76
2024/01/03 02:47:27;;;;;;;0.45;0.20;;;;;;;11.59;100.00;95440.25;5029004;28;20049;-76
2024/01/03 02:49:58;;;;;;;0.52;0.20;;;;;;;11.54;100.00;95435.19;5021652;28;20042;-78
2024/01/03 02:52:25;;;;;;;2.85;0.30;;;;;;;11.51;100.00;95444.06;5025058;28;20095;-75
2024/01/03 02:54:52;;;;;;;0.63;0.20;;;;;;;11.63;100.00;95432.16;5020750;28;20049;-77
2024/01/03 02:57:19;;;;;;;0.63;0.40;;;;;;;11.59;100.00;95431.34;5020524;28;20111;-77
2024/01/03 02:59:46;;;;;;;3.08;0.28;;;;;;;11.47;100.00;95437.84;5017101;28;20042;-76
2024/01/03 03:02:13;;;;;;;3.47;0.50;;;;;;;11.60;100.00;95432.91;5022036;28;20408;-75
2024/01/03 03:04:40;;;;;;;0.63;0.20;;;;;;;11.55;100.00;95422.44;5025527;28;20050;-77
2024/01/03 03:07:07;;;;;;;0.32;0.13;;;;;;;11.45;100.00;95444.78;5023116;28;20857;-77
2024/01/03 03:09:34;;;;;;;0.25;0.20;;;;;;;11.33;100.00;95450.47;5013159;28;20127;-76
2024/01/03 03:12:00;;;;;;;0.65;0.30;;;;;;;11.36;100.00;95439.66;5020883;28;20037;-77
2024/01/03 03:14:27;;;;;;;1.58;0.30;;;;;;;11.40;100.00;95454.03;5022164;28;20196;-76
2024/01/03 03:16:54;;;;;;;0.28;0.15;;;;;;;11.33;100.00;95451.25;5024398;28;20053;-75
2024/01/03 03:19:21;;;;;;;0.90;0.28;;;;;;;11.43;100.00;95445.16;5004665;28;20077;-76
2024/01/03 03:21:48;;;;;;;1.30;0.25;;;;;;;11.38;100.00;95440.06;5022834;28;20034;-74
2024/01/03 03:24:15;;;;;;;0.40;0.20;;;;;;;11.38;100.00;95445.47;5016780;28;20100;-77
2024/01/03 03:26:42;;;;;;;0.30;0.17;;;;;;;11.45;100.00;95450.19;5016004;28;20044;-76
2024/01/03 03:29:09;;;;;;;1.98;0.25;;;;;;;11.39;100.00;95441.63;5016284;28;20045;-76
2024/01/03 03:31:36;;;;;;;0.65;0.28;;;;;;;11.37;100.00;95448.56;5014217;28;20076;-77
2024/01/03 03:34:02;;;;;;;1.25;0.20;;;;;;;11.39;100.00;95432.72;5017923;28;20052;-75
2024/01/03 03:36:30;;;;;;;0.95;0.20;;;;;;;11.59;100.00;95428.63;5033431;28;20073;-77
2024/01/03 03:38:57;;;;;;;1.20;0.22;;;;;;;11.45;100.00;95417.69;5020902;28;20045;-76
2024/01/03 03:41:24;;;;;;;1.67;0.20;;;;;;;11.38;100.00;95412.97;5047070;28;20053;-75
2024/01/03 03:43:51;;;;;;;0.10;0.10;;;;;;;11.31;100.00;95406.72;5024190;28;20092;-75
2024/01/03 03:46:18;;;;;;;0.30;0.20;;;;;;;11.41;100.00;95403.34;5010864;28;20133;-76
2024/01/03 03:48:45;;;;;;;0.10;0.10;;;;;;;11.38;100.00;95398.69;5016672;28;20416;-75
2024/01/03 03:51:12;;;;;;;0.28;0.13;;;;;;;11.36;100.00;95414.50;5015942;28;20107;-78
2024/01/03 03:53:39;;;;;;;2.05;0.20;;;;;;;11.16;100.00;95411.25;5024512;28;20091;-75
2024/01/03 03:56:06;;;;;;;0.10;0.10;;;;;;;11.18;100.00;95411.63;5013664;28;20064;-77
2024/01/03 03:58:33;;;;;;;1.02;0.20;;;;;;;11.20;100.00;95418.22;5033973;28;20057;-77
2024/01/03 04:01:00;;;;;;;0.17;0.10;;;;;;;11.10;100.00;95412.72;5022538;28;20056;-76
2024/01/03 04:03:26;;;;;;;3.30;0.20;;;;;;;11.18;100.00;95417.06;5014136;28;20041;-76
2024/01/03 04:05:53;;;;;;;1.17;0.13;;;;;;;11.18;100.00;95411.63;5019085;28;20046;-77
2024/01/03 04:08:20;;;;;;;0.63;0.20;;;;;;;11.19;100.00;95407.78;5021291;28;20044;-76
2024/01/03 04:10:50;;;;;;;1.25;0.30;;;;;;;11.14;100.00;95410.84;5036286;28;20045;-76
2024/01/03 04:13:16;;;;;;;0.50;0.20;;;;;;;11.00;100.00;95422.28;5023407;28;20045;-79
2024/01/03 04:15:43;;;;;;;0.93;0.30;;;;;;;11.17;100.00;95423.63;5053619;28;20424;-75
2024/01/03 04:18:10;;;;;;;1.10;0.20;;;;;;;10.98;100.00;95413.00;5038262;28;20046;-77
2024/01/03 04:20:37;;;;;;;0.32;0.10;;;;;;;11.21;100.00;95427.94;5041336;28;20392;-76
2024/01/03 04:23:04;;;;;;;0.17;0.10;;;;;;;11.04;100.00;95422.34;5033876;28;20037;-79
2024/01/03 04:25:31;;;;;;;1.00;0.20;;;;;;;11.14;100.00;95427.09;5053123;28;20049;-79
2024/01/03 04:27:58;;;;;;;0.17;0.10;;;;;;;11.10;100.00;95440.56;4994359;28;20165;-78
2024/01/03 04:30:25;;;;;;;0.80;0.20;;;;;;;11.05;100.00;95440.91;5063398;28;20060;-76
2024/01/03 04:32:52;;;;;;;1.52;0.20;;;;;;;10.89;100.00;95448.47;5055020;28;20139;-79
2024/01/03 04:35:19;;;;;;;0.93;0.10;;;;;;;10.98;100.00;95456.31;5054163;28;20424;-78
2024/01/03 04:37:45;;;;;;;0.13;0.10;;;;;;;11.06;100.00;95452.53;5059072;28;20037;-78
2024/01/03 04:40:12;;;;;;;0.20;0.10;;;;;;;10.73;100.00;95449.84;5051730;28;20071;-79
2024/01/03 04:42:39;;;;;;;0.32;0.25;;;;;;;10.94;100.00;95464.38;5051473;28;20041;-77
2024/01/03 04:45:06;;;;;;;0.10;0.10;;;;;;;10.76;100.00;95473.44;5036142;28;20042;-77
2024/01/03 04:47:33;;;;;;;0.28;0.20;;;;;;;10.60;100.00;95460.13;5050360;28;20057;-77
2024/01/03 04:50:00;;;;;;;0.32;0.10;;;;;;;10.62;100.00;95471.34;5052254;28;20469;-77
2024/01/03 04:52:27;;;;;;;1.48;0.73;;;;;;;10.54;100.00;95462.34;5046766;28;20053;-78
2024/01/03 04:54:54;;;;;;;1.27;0.22;;;;;;;10.60;100.00;95468.22;5049553;28;20101;-78
2024/01/03 04:57:21;;;;;;;0.25;0.15;;;;;;;10.82;100.00;95478.16;5048155;28;20468;-78
2024/01/03 04:59:47;;;;;;;0.50;0.20;;;;;;;10.86;100.00;95454.63;5036841;28;20060;-77
2024/01/03 05:02:14;;;;;;;0.30;0.20;;;;;;;10.64;100.00;95447.41;5045151;28;20049;-78
2024/01/03 05:04:41;;;;;;;0.80;0.20;;;;;;;10.70;100.00;95437.03;5041754;28;20045;-79
2024/01/03 05:07:08;;;;;;;1.27;0.30;;;;;;;10.63;100.00;95449.31;5065673;28;20505;-78
2024/01/03 05:09:35;;;;;;;0.85;0.25;;;;;;;10.49;100.00;95457.28;5049623;28;20048;-78
2024/01/03 05:12:05;;;;;;;1.88;0.30;;;;;;;10.60;100.00;95447.38;5053336;28;20045;-76
2024/01/03 05:14:32;;;;;;;4.75;0.20;;;;;;;10.61;100.00;95458.94;5044712;28;20056;-78
2024/01/03 05:17:00;;;;;;;0.40;0.25;;;;;;;10.60;100.00;95450.09;5045549;28;20072;-77
2024/01/03 05:19:26;;;;;;;0.38;0.28;;;;;;;10.59;100.00;95467.44;5039243;28;20037;-78
2024/01/03 05:21:53;;;;;;;1.45;0.30;;;;;;;10.52;100.00;95459.25;5043253;28;20041;-77
2024/01/03 05:24:20;;;;;;;2.20;0.30;;;;;;;10.43;100.00;95471.47;5042309;28;20541;-78
2024/01/03 05:26:47;;;;;;;0.57;0.20;;;;;;;10.55;100.00;95472.03;5050029;28;20194;-78
2024/01/03 05:29:14;;;;;;;1.58;0.50;;;;;;;10.46;100.00;95478.84;5053225;28;20041;-78
2024/01/03 05:31:41;;;;;;;0.90;0.20;;;;;;;10.46;100.00;95481.56;5029398;28;20055;-77
2024/01/03 05:34:10;;;;;;;1.00;0.38;;;;;;;10.60;100.00;95479.84;5053834;28;20048;-77
2024/01/03 05:36:37;;;;;;;2.92;0.60;;;;;;;10.81;100.00;95487.44;5037176;28;20049;-78
2024/01/03 05:39:03;;;;;;;2.38;0.55;;;;;;;10.76;100.00;95479.66;5035921;28;20033;-77
2024/01/03 05:41:30;;;;;;;1.35;0.25;;;;;;;10.83;100.00;95485.13;5045149;28;20123;-77
2024/01/03 05:43:57;;;;;;;3.05;0.40;;;;;;;10.75;100.00;95496.22;5029417;28;20048;-78
2024/01/03 05:46:24;;;;;;;2.85;0.30;;;;;;;10.73;100.00;95493.13;5030386;28;20042;-77
2024/01/03 05:48:51;;;;;;;1.70;0.30;;;;;;;10.88;100.00;95495.63;5031747;28;20051;-76
2024/01/03 05:51:18;;;;;;;1.30;0.30;;;;;;;10.91;100.00;95484.09;5031933;28;20045;-77
2024/01/03 05:53:47;;;;;;;0.82;0.40;;;;;;;10.89;100.00;95496.44;5030858;28;20068;-77
2024/01/03 05:56:15;;;;;;;0.57;0.30;;;;;;;10.87;100.00;95498.69;5022294;28;20046;-75
2024/01/03 05:58:43;;;;;;;2.35;0.30;;;;;;;10.95;100.00;95494.94;5024950;28;20034;-77
2024/01/03 06:01:10;;;;;;;1.75;0.50;;;;;;;10.96;100.00;95489.16;5029254;28;20064;-78
2024/01/03 06:03:37;;;;;;;0.85;0.38;;;;;;;11.06;100.00;95493.13;5028276;28;20060;-77
2024/01/03 06:06:04;;;;;;;1.67;0.22;;;;;;;10.77;100.00;95496.66;5044967;28;20053;-78
2024/01/03 06:08:32;;;;;;;2.65;0.30;;;;;;;10.73;100.00;95512.84;5042050;28;20040;-77
2024/01/03 06:10:59;;;;;;;0.98;0.38;;;;;;;10.79;100.00;95497.84;5045037;28;20460;-76
2024/01/03 06:13:26;;;;;;;1.75;0.40;;;;;;;10.71;100.00;95507.00;5039408;28;20566;-76
2024/01/03 06:15:53;;;;;;;2.13;0.50;;;;;;;10.60;100.00;95504.19;5033414;28;20060;-76
2024/01/03 06:18:21;;;;;;;1.73;0.25;;;;;;;10.71;100.00;95512.41;5037797;28;20140;-77
2024/01/03 06:20:48;;;;;;;2.15;0.40;;;;;;;10.64;100.00;95513.13;5040250;28;20123;-77
2024/01/03 06:23:15;;;;;;;4.68;0.77;;;;;;;10.67;100.00;95517.00;5034450;28;20041;-77
2024/01/03 06:25:42;;;;;;;3.65;0.45;;;;;;;10.80;100.00;95506.75;5038125;28;20041;-76
2024/01/03 06:28:09;;;;;;;1.27;0.30;;;;;;;10.74;100.00;95521.72;5037671;28;20103;-77
2024/01/03 06:30:36;;;;;;;1.92;0.80;;;;;;;10.64;100.00;95517.75;5033737;28;20036;-75
2024/01/03 06:33:03;;;;;;;0.28;0.20;;;;;;;10.58;100.00;95527.34;5037748;28;20577;-76
2024/01/03 06:35:30;;;;;;;0.90;0.38;;;;;;;10.88;100.00;95528.13;5039459;28;20048;-77
2024/01/03 06:37:57;;;;;;;1.40;0.38;;;;;;;10.73;100.00;95537.19;5036630;28;20059;-75
2024/01/03 06:40:24;;;;;;;2.67;0.70;;;;;;;10.78;100.00;95536.88;5038562;28;20104;-76
2024/01/03 06:42:50;;;;;;;4.47;0.55;;;;;;;10.68;100.00;95539.44;5033534;28;20049;-75
2024/01/03 06:45:17;;;;;;;1.10;0.30;;;;;;;10.78;100.00;95536.09;5030571;28;20053;-75
2024/01/03 06:47:44;;;;;;;3.35;0.70;;;;;;;10.78;100.00;95542.28;5024176;28;20068;-79
2024/01/03 06:50:13;;;;;;;1.85;0.40;;;;;;;10.75;100.00;95548.44;5042314;28;20048;-77
2024/01/03 06:52:39;;;;;;;1.88;0.25;;;;;;;10.73;100.00;95547.25;5042033;28;20456;-79
2024/01/03 06:55:07;;;;;;;0.98;0.22;;;;;;;10.86;100.00;95538.53;5047731;28;20045;-78
2024/01/03 06:57:33;;;;;;;2.20;0.70;;;;;;;10.71;100.00;95546.84;5019594;28;20249;-76
2024/01/03 07:00:00;;;;;;;1.90;0.28;;;;;;;10.80;100.00;95550.03;5033257;28;20049;-78
2024/01/03 07:02:27;;;;;;;5.07;0.40;;;;;;;10.75;100.00;95558.47;5035247;28;20527;-78
2024/01/03 07:04:54;;;;;;;2.50;0.50;;;;;;;10.77;100.00;95569.72;5034339;28;20058;-79
2024/01/03 07:07:21;;;;;;;3.13;0.70;;;;;;;10.69;100.00;95558.00;5032361;28;20157;-76
2024/01/03 07:09:48;;;;;;;2.58;0.40;;;;;;;10.81;100.00;95557.81;5004136;28;20056;-77
2024/01/03 07:12:18;;;;;;;2.42;0.40;;;;;;;10.87;100.00;95569.06;5016753;28;20160;-76
2024/01/03 07:14:46;;;;;;;2.28;0.38;;;;;;;10.90;100.00;95569.13;5031348;28;20052;-75
2024/01/03 07:17:15;;;;;;;1.73;0.35;;;;;;;10.90;100.00;95566.41;5044727;28;20040;-76
2024/01/03 07:19:42;;;;;;;2.08;0.50;;;;;;;10.87;100.00;95567.16;5043472;28;20049;-75
2024/01/03 07:22:09;;;;;;;2.78;0.70;;;;;;;10.84;100.00;95594.94;5044240;28;20294;-77
2024/01/03 07:24:39;;;;;;;3.20;0.70;;;;;;;10.85;100.00;95585.69;5047847;28;20274;-77
2024/01/03 07:27:06;;;;;;;2.50;0.57;;;;;;;10.87;100.00;95588.81;5029096;28;20057;-79
2024/01/03 07:29:33;;;;;;;2.20;0.30;;;;;;;10.92;100.00;95610.13;5028110;28;20053;-76
2024/01/03 07:32:00;;;;;;;2.83;0.50;;;;;;;11.04;100.00;95609.16;5062861;28;20045;-77
2024/01/03 07:34:27;;;;;;;5.20;0.60;;;;;;;11.14;100.00;95614.69;5044847;28;20101;-76
2024/01/03 07:36:53;;;;;;;5.10;0.70;;;;;;;10.98;100.00;95621.44;5042111;28;20049;-78
2024/01/03 07:39:20;;;;;;;2.70;0.43;;;;;;;10.92;100.00;95617.47;5038308;28;20045;-77
2024/01/03 07:41:49;;;;;;;6.38;0.80;;;;;;;10.96;100.00;95621.81;5051644;28;20043;-75
2024/01/03 07:44:16;;;;;;;3.97;0.90;;;;;;;11.10;100.00;95618.50;5026831;28;20056;-77
2024/01/03 07:46:43;;;;;;;3.03;0.40;;;;;;;11.15;100.00;95632.50;5031976;28;20519;-77
2024/01/03 07:49:10;;;;;;;3.00;0.85;;;;;;;11.04;100.00;95625.38;5053762;28;20045;-76
2024/01/03 07:51:38;;;;;;;1.13;0.40;;;;;;;11.03;100.00;95616.47;5034490;28;20041;-76
2024/01/03 07:54:07;;;;;;;1.30;0.40;;;;;;;11.03;100.00;95631.94;5049041;28;20052;-76
2024/01/03 07:56:34;;;;;;;5.63;0.60;;;;;;;10.88;100.00;95628.25;5053870;28;20094;-77
2024/01/03 07:59:01;;;;;;;3.30;0.50;;;;;;;10.91;100.00;95621.34;5052122;28;20431;-77
2024/01/03 08:01:28;;;;;;;1.98;0.45;;;;;;;11.03;100.00;95634.66;5051229;28;20470;-78
2024/01/03 08:03:55;;;;;;;1.77;0.32;;;;;;;10.93;100.00;95636.06;5046746;28;20127;-78
2024/01/03 08:06:22;;;;;;;3.53;0.50;;;;;;;11.02;100.00;95647.41;5043428;28;20104;-75
2024/01/03 08:08:49;;;;;;;1.25;0.45;;;;;;;11.02;100.00;95639.28;5057398;28;20072;-77
2024/01/03 08:11:15;;;;;;;4.00;0.50;;;;;;;11.16;100.00;95628.66;5039459;28;20041;-78
2024/01/03 08:13:42;;;;;;;1.70;0.60;;;;;;;10.93;100.00;95638.78;5036645;28;20049;-78
2024/01/03 08:16:10;;;;;;;1.65;0.60;;;;;;;11.15;100.00;95637.91;5046480;28;20048;-77
2024/01/03 08:18:39;;;;;;;1.38;0.60;;;;;;;11.16;100.00;95623.22;5043512;28;20049;-77
2024/01/03 08:21:06;;;;;;;4.40;0.60;;;;;;;11.02;100.00;95625.75;5038352;28;20052;-77
2024/01/03 08:23:33;;;;;;;7.68;0.65;;;;;;;10.92;100.00;95636.41;5032448;28;20454;-77
2024/01/03 08:26:07;;;;;;;2.53;0.43;;;;;;;11.03;100.00;95637.34;5036701;28;20402;-79
2024/01/03 08:28:40;;;;;;;6.45;0.82;;;;;;;10.92;100.00;95631.00;5029953;28;20059;-78
2024/01/03 08:31:08;;;;;;;2.80;0.50;;;;;;;10.96;100.00;95632.63;5038354;28;20071;-77
2024/01/03 08:33:36;;;;;;;7.63;0.68;;;;;;;10.98;100.00;95619.50;5038474;28;20065;-77
2024/01/03 08:36:03;;;;;;;3.47;0.60;;;;;;;11.09;100.00;95617.72;5037193;28;20570;-79
2024/01/03 08:38:31;;;;;;;3.05;0.35;;;;;;;11.07;100.00;95625.41;5039820;28;20107;-77
2024/01/03 08:40:57;;;;;;;8.90;0.75;;;;;;;11.31;100.00;95628.81;5046886;28;20049;-78
2024/01/03 08:43:24;;;;;;;1.73;0.40;;;;;;;11.45;100.00;95631.72;5035311;28;20056;-77
2024/01/03 08:45:51;;;;;;;3.22;0.73;;;;;;;11.45;100.00;95621.66;5035271;28;20053;-76
2024/01/03 08:48:17;;;;;;;7.47;0.70;;;;;;;11.43;100.00;95620.47;5038218;28;20124;-76
2024/01/03 08:50:44;;;;;;;2.15;0.40;;;;;;;11.63;100.00;95627.28;5040378;28;20044;-77
2024/01/03 08:53:11;;;;;;;4.70;0.50;;;;;;;11.75;100.00;95632.47;5050039;28;20045;-76
2024/01/03 08:55:38;;;;;;;3.90;0.55;;;;;;;11.85;100.00;95629.09;5050718;28;20052;-78
2024/01/03 08:58:06;;;;;;;8.05;0.90;;;;;;;11.66;100.00;95621.91;5041708;28;20562;-76
2024/01/03 09:00:33;;;;;;;3.05;0.45;;;;;;;11.69;100.00;95618.47;5043770;28;20049;-77
2024/01/03 09:03:00;;;;;;;6.18;0.50;;;;;;;11.99;100.00;95621.13;5033298;28;20075;-78
2024/01/03 09:05:27;;;;;;;4.43;0.98;;;;;;;11.83;100.00;95625.97;5051909;28;20045;-74
2024/01/03 09:07:54;;;;;;;6.20;0.80;;;;;;;11.84;100.00;95632.97;5037716;28;20508;-78
2024/01/03 09:10:21;;;;;;;4.13;0.60;;;;;;;11.63;100.00;95617.22;5048449;28;20045;-77
2024/01/03 09:12:48;;;;;;;5.07;0.70;;;;;;;11.66;100.00;95619.19;5075791;28;20128;-77
2024/01/03 09:15:15;;;;;;;5.75;1.13;;;;;;;11.55;100.00;95620.22;5030005;28;20124;-78
2024/01/03 09:17:43;;;;;;;2.38;0.47;;;;;;;11.63;100.00;95636.19;5029579;28;20049;-76
2024/01/03 09:20:11;;;;;;;4.07;0.70;;;;;;;11.91;100.00;95614.06;5039232;28;20037;-77
2024/01/03 09:22:38;;;;;;;4.13;0.77;;;;;;;11.64;100.00;95618.00;5042726;28;20045;-77
2024/01/03 09:25:05;;;;;;;4.57;0.43;;;;;;;11.85;100.00;95616.31;5042838;28;20046;-77
2024/01/03 09:27:32;;;;;;;3.80;0.68;;;;;;;11.88;100.00;95595.81;5035835;28;20061;-76
2024/01/03 09:29:59;;;;;;;4.65;0.90;;;;;;;11.77;100.00;95611.97;5027805;28;20046;-78
2024/01/03 09:32:25;;;;;;;3.63;0.55;;;;;;;11.96;100.00;95616.44;5011280;28;20090;-76
2024/01/03 09:34:52;;;;;;;4.95;0.90;;;;;;;11.94;100.00;95604.41;5035623;28;20045;-77
2024/01/03 09:37:19;;;;;;;4.22;0.77;;;;;;;11.95;100.00;95620.28;5035147;28;20088;-77
2024/01/03 09:39:46;;;;;;;5.05;0.75;;;;;;;11.89;100.00;95621.78;5057052;28;20504;-76
2024/01/03 09:42:13;;;;;;;7.13;0.85;;;;;;;11.94;100.00;95620.66;5018811;28;20065;-77
2024/01/03 09:44:42;;;;;;;6.93;1.23;;;;;;;11.93;100.00;95621.81;5027085;28;20080;-76
2024/01/03 09:47:09;;;;;;;5.10;0.77;;;;;;;12.02;100.00;95631.22;5029604;28;20045;-77
2024/01/03 09:49:36;;;;;;;5.72;0.77;;;;;;;11.76;100.00;95631.34;5037991;28;20128;-76
2024/01/03 09:52:07;;;;;;;1.23;0.40;;;;;;;11.82;100.00;95621.69;5042824;28;20505;-77
2024/01/03 09:54:36;;;;;;;5.65;0.90;;;;;;;11.86;100.00;95608.97;5043503;28;20049;-78
2024/01/03 09:57:03;;;;;;;6.38;0.70;;;;;;;11.94;100.00;95612.53;5043021;28;20114;-77
2024/01/03 09:59:30;;;;;;;3.60;1.00;;;;;;;11.83;100.00;95620.56;5034474;28;20065;-79
2024/01/03 10:01:59;;;;;;;3.08;0.73;;;;;;;12.05;100.00;95605.28;5042924;28;20045;-76
2024/01/03 10:04:26;;;;;;;5.53;0.90;;;;;;;11.99;100.00;95599.44;5045059;28;20025;-75
2024/01/03 10:06:54;;;;;;;2.70;0.65;;;;;;;11.85;100.00;95601.97;5035120;28;20054;-77
2024/01/03 10:09:21;;;;;;;5.22;0.80;;;;;;;12.03;100.00;95608.34;5044864;28;20056;-75
2024/01/03 10:11:53;;;;;;;3.75;0.63;;;;;;;12.24;100.00;95602.34;5049815;28;22287;-75
2024/01/03 10:14:22;;;;;;;4.70;0.88;;;;;;;12.18;100.00;95603.88;5035710;28;20097;-77
2024/01/03 10:16:49;;;;;;;9.50;0.77;;;;;;;11.96;100.00;95615.66;5043169;28;20075;-79
2024/01/03 10:19:19;;;;;;;3.95;0.50;;;;;;;12.13;100.00;95607.66;5046533;28;20041;-77
2024/01/03 10:21:52;;;;;;;5.00;0.50;;;;;;;12.17;100.00;95607.72;5045957;28;20049;-77
2024/01/03 10:24:22;;;;;;;4.30;0.70;;;;;;;12.03;100.00;95616.50;5029411;28;20044;-78
2024/01/03 10:26:49;;;;;;;5.05;0.88;;;;;;;12.20;100.00;95606.97;5046470;28;20053;-76
2024/01/03 10:29:20;;;;;;;4.88;1.13;;;;;;;12.00;100.00;95619.94;5051960;28;20110;-76
2024/01/03 10:31:49;;;;;;;4.18;0.68;;;;;;;12.01;100.00;95628.88;5052644;28;20053;-76
2024/01/03 10:34:23;;;;;;;3.78;0.80;;;;;;;11.88;100.00;95614.78;5050387;28;20046;-79
2024/01/03 10:36:53;;;;;;;5.15;0.88;;;;;;;12.02;100.00;95620.38;5044739;28;20042;-78
2024/01/03 10:39:20;;;;;;;6.13;0.68;;;;;;;11.91;100.00;95614.06;5049575;28;20052;-78
2024/01/03 10:41:49;;;;;;;4.57;0.70;;;;;;;12.18;100.00;95607.34;5051563;28;20037;-78
2024/01/03 10:44:18;;;;;;;2.40;0.70;;;;;;;12.24;100.00;95613.97;5051245;28;20041;-75
2024/01/03 10:46:47;;;;;;;9.50;0.80;;;;;;;12.23;100.00;95609.69;5051333;28;20045;-77
2024/01/03 10:49:15;;;;;;;4.10;0.60;;;;;;;12.10;100.00;95607.66;5053817;28;20048;-76
2024/01/03 10:51:44;;;;;;;4.50;0.80;;;;;;;11.95;100.00;95616.81;5054973;28;20049;-78
2024/01/03 10:54:16;;;;;;;5.05;0.90;;;;;;;11.99;100.00;95626.53;5045538;28;20112;-76
2024/01/03 10:56:51;;;;;;;3.47;0.50;;;;;;;11.48;100.00;95609.31;5043480;28;20037;-77
2024/01/03 10:59:24;;;;;;;4.37;0.70;;;;;;;11.41;100.00;95623.53;5042162;28;20100;-76
2024/01/03 11:02:24;;;;;;;6.78;0.50;;;;;;;11.43;100.00;95617.75;5044298;28;20045;-78
2024/01/03 11:04:59;;;;;;;4.57;0.88;;;;;;;11.47;100.00;95619.34;5051423;28;20793;-76
2024/01/03 11:07:37;;;;;;;3.65;0.60;;;;;;;11.73;100.00;95605.75;5034422;28;20099;-73
2024/01/03 11:10:04;;;;;;;4.55;0.77;;;;;;;11.65;100.00;95608.72;5033839;28;20083;-72
2024/01/03 11:12:31;;;;;;;5.25;0.60;;;;;;;11.61;100.00;95616.03;5021301;28;20622;-76
2024/01/03 11:15:22;;;;;;;3.55;0.63;;;;;;;11.61;100.00;95616.81;5032975;28;20069;-77
2024/01/03 11:18:05;;;;;;;3.45;0.68;;;;;;;11.72;100.00;95600.69;5015931;28;20424;-77
2024/01/03 11:20:32;;;;;;;5.95;1.00;;;;;;;12.02;100.00;95600.59;5013629;28;20888;-77
2024/01/03 11:23:02;;;;;;;3.60;0.52;;;;;;;11.86;100.00;95612.47;5018941;28;20507;-77
2024/01/03 11:25:49;;;;;;;2.88;0.68;;;;;;;11.74;100.00;95604.59;5016882;28;20053;-77
2024/01/03 11:28:29;;;;;;;5.50;0.60;;;;;;;12.04;100.00;95599.09;5013888;28;20747;-77